aviador You're here:

KPOB Decoded Metar

FAYETTEVILLE in NC, USA
Report Time2018-07-17 20:56:00
UTC Time2018-07-17 21:11:27
Flight Rules vfr VFR
Wind240° at 11 kt
W.Decomp.*RWY 23: 10.5 kt HW 3.2 kt RCW
W.Rank240° ranks 1
Current wind is above 240° avg. (7.5)
Visibility9999 m
Phenomena:N/A
Clouds:Scattered 055 Hf
Scattered 080 Hf
Expected CloudBase > 5,200 ft AGL from Temp-Dew spread
CeilingNone
Temp34°C (ISA +19)
Dew Point21°C (47% RH)
Heat Index37.4°C
QNH1011 hPa
Density Alt2,822 ft
Elevation217 ft
Report Wrong Elevation
Raw Report
KPOB 172056Z AUTO 24011KT 10SM SCT055 SCT080 34/21 A2985 RMK AO2
SLP109 T03430213 57020=

Extra information for KPOB:More info

Metar Taf Metar & Taf Last 4 Metars F.Rules Stats Wind Profile Meteogram Temp Stats Airport Information Weather charts Add Link Nearby VenuesMetar ALERT Operation Metar Decoded Social comments

AIRNAV info for KPOB